createdAt,value
2023-03-23T15:58:19.090Z,2.92
2023-03-23T16:00:47.003Z,3.03
2023-03-23T16:03:27.709Z,3.20
2023-03-23T16:05:57.548Z,2.90
2023-03-23T16:08:24.339Z,3.13
2023-03-23T16:10:51.233Z,3.60
2023-03-23T16:13:18.478Z,3.30
2023-03-23T16:15:47.702Z,3.13
2023-03-23T16:18:19.090Z,3.22
2023-03-23T16:20:47.571Z,3.20
2023-03-23T16:23:14.458Z,3.47
2023-03-23T16:25:41.474Z,2.97
2023-03-23T16:28:12.891Z,2.95
2023-03-23T16:30:40.584Z,3.40
2023-03-23T16:33:07.435Z,3.67
2023-03-23T16:35:34.614Z,3.47
2023-03-23T16:38:08.061Z,3.40
2023-03-23T16:40:39.230Z,3.85
2023-03-23T16:43:09.128Z,3.67
2023-03-23T16:45:37.747Z,3.70
2023-03-23T16:48:05.565Z,3.55
2023-03-23T16:50:32.970Z,4.35
2023-03-23T16:53:00.030Z,4.60
2023-03-23T16:55:28.032Z,4.00
2023-03-23T16:58:05.401Z,3.85
2023-03-23T17:00:40.786Z,3.80
2023-03-23T17:03:08.211Z,3.80
2023-03-23T17:05:37.196Z,3.30
2023-03-23T17:08:05.109Z,3.30
2023-03-23T17:10:32.331Z,3.53
2023-03-23T17:12:59.355Z,4.13
2023-03-23T17:15:26.796Z,3.95
2023-03-23T17:17:55.167Z,3.92
2023-03-23T17:20:23.223Z,3.95
2023-03-23T17:22:50.136Z,4.15
2023-03-23T17:25:16.871Z,3.80
2023-03-23T17:27:43.760Z,4.38
2023-03-23T17:30:11.559Z,3.60
2023-03-23T17:32:38.548Z,5.00
2023-03-23T17:35:06.620Z,4.65
2023-03-23T17:37:33.562Z,4.82
2023-03-23T17:40:00.468Z,12.20
2023-03-23T17:42:27.625Z,7.10
2023-03-23T17:44:54.381Z,5.18
2023-03-23T17:47:21.345Z,4.50
2023-03-23T17:49:48.176Z,4.43
2023-03-23T17:52:15.344Z,4.50
2023-03-23T17:54:42.342Z,4.82
2023-03-23T17:57:09.378Z,5.30
2023-03-23T17:59:36.266Z,5.03
2023-03-23T18:02:03.135Z,4.45
2023-03-23T18:04:30.671Z,6.78
2023-03-23T18:06:58.402Z,6.07
2023-03-23T18:09:25.840Z,7.15
2023-03-23T18:11:53.237Z,11.10
2023-03-23T18:14:20.883Z,8.45
2023-03-23T18:16:48.326Z,8.85
2023-03-23T18:19:15.689Z,4.68
2023-03-23T18:21:45.334Z,6.47
2023-03-23T18:24:13.094Z,8.45
2023-03-23T18:26:40.734Z,10.98
2023-03-23T18:29:07.581Z,9.27
2023-03-23T18:31:39.998Z,7.65
2023-03-23T18:34:08.072Z,7.10
2023-03-23T18:36:35.678Z,7.10
2023-03-23T18:39:03.970Z,7.57
2023-03-23T18:41:30.825Z,10.63
2023-03-23T18:43:58.012Z,9.57
2023-03-23T18:46:25.199Z,9.63
2023-03-23T18:48:52.147Z,8.98
2023-03-23T18:51:19.340Z,9.88
2023-03-23T18:53:46.228Z,9.27
2023-03-23T18:56:16.151Z,6.75
2023-03-23T18:58:44.263Z,7.93
2023-03-23T19:01:14.677Z,11.07
2023-03-23T19:03:42.165Z,10.23
2023-03-23T19:06:35.719Z,25.52
2023-03-23T19:09:02.644Z,18.23
2023-03-23T19:11:29.649Z,15.80
2023-03-23T19:14:02.598Z,12.15
2023-03-23T19:16:32.591Z,9.40
2023-03-23T19:19:01.977Z,14.75
2023-03-23T19:21:32.063Z,11.20
2023-03-23T19:24:00.649Z,9.80
2023-03-23T19:26:39.285Z,7.78
2023-03-23T19:31:38.941Z,6.88
2023-03-23T19:34:06.216Z,7.05
2023-03-23T19:36:33.508Z,7.20
2023-03-23T19:39:02.625Z,6.05
2023-03-23T19:41:30.667Z,6.45
2023-03-23T19:43:59.919Z,9.77
2023-03-23T19:46:30.269Z,9.65
2023-03-23T19:48:58.886Z,7.57
2023-03-23T19:51:26.834Z,8.27
2023-03-23T19:53:58.474Z,7.75
2023-03-23T19:56:26.244Z,8.93
2023-03-23T19:58:53.210Z,8.80
2023-03-23T20:01:20.387Z,7.03
2023-03-23T20:03:48.554Z,7.03
2023-03-23T20:06:15.762Z,6.95
2023-03-23T20:08:45.746Z,5.65
2023-03-23T20:11:17.171Z,6.13
2023-03-23T20:13:45.616Z,5.70
2023-03-23T20:16:12.473Z,5.75
2023-03-23T20:18:40.379Z,5.53
2023-03-23T20:21:10.528Z,6.47
2023-03-23T20:23:38.838Z,5.97
2023-03-23T20:26:09.413Z,8.90
2023-03-23T20:28:36.608Z,7.57
2023-03-23T20:31:18.988Z,6.55
2023-03-23T20:33:59.658Z,7.80
2023-03-23T20:36:35.186Z,7.65
2023-03-23T20:39:11.613Z,7.35
2023-03-23T20:41:40.509Z,8.48
2023-03-23T20:44:14.247Z,8.65
2023-03-23T20:46:51.937Z,24.77
2023-03-23T20:49:21.001Z,18.95
2023-03-23T20:51:48.583Z,10.15
2023-03-23T20:54:18.902Z,10.13
2023-03-23T20:56:47.438Z,11.98
2023-03-23T20:59:15.579Z,11.15
2023-03-23T21:01:42.877Z,6.60
2023-03-23T21:04:15.484Z,6.25
2023-03-23T21:06:44.086Z,7.53
2023-03-23T21:09:12.192Z,7.57
2023-03-23T21:11:39.264Z,7.80
2023-03-23T21:14:06.960Z,8.27
2023-03-23T21:16:34.469Z,8.18
2023-03-23T21:19:03.516Z,7.55
2023-03-23T21:21:31.181Z,9.65
2023-03-23T21:23:58.216Z,8.98
2023-03-23T21:26:28.965Z,8.13
2023-03-23T21:29:00.072Z,9.23
2023-03-23T21:31:31.807Z,8.27
2023-03-23T21:34:00.217Z,8.75
2023-03-23T21:36:27.926Z,9.25
2023-03-23T21:38:56.132Z,9.73
2023-03-23T21:41:23.223Z,9.80
2023-03-23T21:43:51.568Z,10.82
2023-03-23T21:46:18.966Z,9.82
2023-03-23T21:48:51.761Z,10.40
2023-03-23T21:51:28.178Z,8.75
2023-03-23T21:53:58.667Z,8.48
2023-03-23T21:56:28.591Z,8.30
2023-03-23T21:58:56.947Z,6.88
2023-03-23T22:01:25.205Z,6.90
2023-03-23T22:03:52.162Z,7.38
2023-03-23T22:06:23.543Z,6.47
2023-03-23T22:08:51.514Z,5.93
2023-03-23T22:11:21.586Z,6.25
2023-03-23T22:13:51.480Z,5.68
2023-03-23T22:16:19.917Z,5.28
2023-03-23T22:18:48.165Z,5.72
2023-03-23T22:21:16.819Z,5.68
2023-03-23T22:23:45.441Z,6.20
2023-03-23T22:26:14.050Z,6.22
2023-03-23T22:28:41.820Z,5.60
2023-03-23T22:31:17.123Z,6.28
2023-03-23T22:33:45.675Z,6.40
2023-03-23T22:36:12.944Z,6.47
2023-03-23T22:38:43.884Z,8.27
2023-03-23T22:41:17.897Z,8.02
2023-03-23T22:43:45.804Z,7.68
2023-03-23T22:46:12.873Z,6.78
2023-03-23T22:48:40.776Z,6.60
2023-03-23T22:51:09.157Z,6.55
2023-03-23T22:53:36.323Z,5.75
2023-03-23T22:56:04.092Z,7.68
2023-03-23T22:58:31.261Z,8.30
2023-03-23T23:01:05.524Z,8.18
2023-03-23T23:03:34.034Z,7.15
2023-03-23T23:06:01.565Z,6.40
2023-03-23T23:08:30.127Z,6.97
2023-03-23T23:10:58.894Z,6.35
2023-03-23T23:13:26.892Z,6.40
2023-03-23T23:15:58.331Z,6.00
2023-03-23T23:18:30.050Z,5.45
2023-03-23T23:21:00.117Z,5.65
2023-03-23T23:23:28.184Z,5.45
2023-03-23T23:25:55.495Z,5.47
2023-03-23T23:28:22.974Z,5.68
2023-03-23T23:30:51.042Z,6.00
2023-03-23T23:33:19.110Z,5.85
2023-03-23T23:35:46.416Z,5.55
2023-03-23T23:38:14.028Z,5.03
2023-03-23T23:40:43.239Z,6.10
2023-03-23T23:43:12.299Z,5.57
2023-03-23T23:45:40.469Z,4.50
2023-03-23T23:48:07.435Z,4.53
2023-03-23T23:50:34.345Z,5.30
2023-03-23T23:53:01.481Z,4.20
2023-03-23T23:55:28.796Z,4.00
2023-03-23T23:57:56.154Z,4.50
